Arkansas Post National Memor, Arkansas
Current Conditions -  °F | °C
As of 1:53 PM on Sunday 23 Nov 2014 (Local Time) from KPBF Reporting Station
Light Rain Light Rain  
Wind Chill: 62°   Ceiling: 600
Heat Index: 62°   Visibility: 10mi
Dew Point: 60°   Wind: 9mph
Humidity: 93%   Direction: 240°WSW
Pressure: 29.39"   Gusts: NA
Location:  34.1564°N, 91.3915°W
Report Text: KPBF 231953Z AUTO 24008KT 10SM -RA BKN006 BKN026 OVC050 17/16 A2939 RMK AO2 SLP952 P0001 T01670156
Loading
Personal Weather Stations






























Interactive Weather Map New forecast layout! Learn more

10-Day Weather Forecast

Advertisements
Track Severe Weather on mobile